Richvale, CA (95974)

1:43 AM PST on February 11, 2016 (GMT -0800)
Oroville Municipal | | Change Station
CLOSE
Current Station
Airport
Location: Oroville,
Elevation: 190 ft
Nearby Weather Stations

Elev 190 ft 39.49 °N, 121.62 °W | Updated 50 minutes ago

Mostly Cloudy
Mostly Cloudy
52 °F
Feels Like 52 °F
N
4
Wind Variable Wind from South

Today
High -- | Low -- °F
--% Chance of Precip.
Yesterday
High -- | Low -- °F
Precip. -- in
Pressure 30.17 in
Visibility 10.0 miles
Clouds Clear
Dew Point 48 °F
Humidity 86%
Rainfall 0.00 in
Snow Depth Not available.
7:04 AM 5:38 PM
Waxing Crescent, 10% visible
METAR KOVE 110853Z AUTO 19003KT 10SM CLR 11/09 A3016 RMK AO2 SLP214 T01110089 $
Pressure 30.17 in
Visibility 10.0 miles
Clouds Clear
Dew Point 48 °F
Humidity 86%
Rainfall 0.00 in
Snow Depth Not available.
7:04 AM 5:38 PM
Waxing Crescent, 10% visible
METAR KOVE 110853Z AUTO 19003KT 10SM CLR 11/09 A3016 RMK AO2 SLP214 T01110089 $

10-Day Weather Forecast

Almanac

Astronomy

Feb. 11, 2016 Rise Set
Actual Time
Civil Twilight
Nautical Twilight
Astronomical Twilight
Moon
Length of Visible Light
Length of Day
Tomorrow will be .
, % of the Moon is Illuminated

Today's Extremes

State Highs State Lows

Community

WunderPhotos

Upload Photos

1,892,030 photos uploaded!

WunderBlog® & News

Nearby

Air Quality

  Air Quality AQ Index Pollutant
Not available.

Snow Depth

Station Depth Elevation

Earthquake Activity

City Distance Mag. Time & Date
Minimum magnitude displayed is 2.5.

Coastal Water Temperatures

Place Temperature

Stations

Nearby Weather Stations

Station Location Temp. Windchill Dew Point Humidity Wind Precip. Elev Updated Type
                   

Watches & Warnings

There are currently no watches in effect.